Time;durP1;ratioP1;P1;durP2;ratioP2;P2;SDS_P1;SDS_P2;PMS_P1;PMS_P2;Temp;Humidity;BMP_temperature;BMP_pressure;BME280_temperature;BME280_humidity;BME280_pressure;Samples;Min_cycle;Max_cycle;Signal;HPM_P1;HPM_P2
2022/08/28 00:01:11;;;;;;;12.03;10.00;;;20.40;1.00;;;;;;5010504;28;20265;-67
2022/08/28 00:03:37;;;;;;;11.10;8.50;;;20.50;1.00;;;;;;4991729;28;20716;-67
2022/08/28 00:06:03;;;;;;;9.50;8.33;;;20.40;1.00;;;;;;4991619;28;20431;-68
2022/08/28 00:08:29;;;;;;;11.60;9.70;;;20.40;22.60;;;;;;4991395;28;20219;-69
2022/08/28 00:10:55;;;;;;;10.63;9.53;;;20.40;1.00;;;;;;4991513;28;20469;-68
2022/08/28 00:13:24;;;;;;;9.87;8.87;;;20.30;99.90;;;;;;4991953;28;20634;-68
2022/08/28 00:15:57;;;;;;;11.40;9.70;;;20.40;99.90;;;;;;4991519;28;21027;-68
2022/08/28 00:18:24;;;;;;;11.77;10.60;;;20.30;99.90;;;;;;4991435;28;20594;-67
2022/08/28 00:20:51;;;;;;;11.17;10.07;;;20.30;99.90;;;;;;4991669;28;20408;-68
2022/08/28 00:23:17;;;;;;;12.30;9.47;;;20.30;99.90;;;;;;4991504;28;20495;-68
2022/08/28 00:25:43;;;;;;;11.83;10.50;;;20.40;99.90;;;;;;4991260;28;20459;-67
2022/08/28 00:28:11;;;;;;;10.63;9.53;;;20.40;99.90;;;;;;4991104;28;20404;-68
2022/08/28 00:30:45;;;;;;;10.83;9.83;;;20.40;99.90;;;;;;4990036;28;20180;-68
2022/08/28 00:33:15;;;;;;;11.13;10.03;;;20.40;99.90;;;;;;4991575;28;20463;-67
2022/08/28 00:35:42;;;;;;;11.57;10.37;;;20.40;99.90;;;;;;4991287;28;20420;-67
2022/08/28 00:38:09;;;;;;;12.60;10.87;;;20.30;99.90;;;;;;4991021;28;20404;-67
2022/08/28 00:40:35;;;;;;;15.77;11.83;;;20.40;99.90;;;;;;4991229;28;20412;-70
2022/08/28 00:43:03;;;;;;;18.70;11.17;;;20.40;99.90;;;;;;4991420;28;20992;-67
2022/08/28 00:45:31;;;;;;;11.37;10.27;;;20.50;99.90;;;;;;4991514;28;20866;-68
2022/08/28 00:47:57;;;;;;;11.80;10.60;;;20.50;99.90;;;;;;4991216;28;20428;-69
2022/08/28 00:50:26;;;;;;;11.10;9.90;;;20.40;99.90;;;;;;4991219;28;20495;-69
2022/08/28 00:52:58;;;;;;;12.27;11.07;;;20.40;99.90;;;;;;4991462;28;20404;-67
2022/08/28 00:55:27;;;;;;;15.53;11.40;;;20.40;99.90;;;;;;4991044;28;20459;-66
2022/08/28 00:57:57;;;;;;;14.00;10.97;;;20.40;99.90;;;;;;4991031;28;20529;-69
2022/08/28 01:00:32;;;;;;;13.57;12.20;;;20.40;99.90;;;;;;4991193;28;20925;-70
2022/08/28 01:02:58;;;;;;;14.63;11.93;;;20.30;99.90;;;;;;4991156;28;20536;-67
2022/08/28 01:05:27;;;;;;;12.40;11.10;;;20.30;99.90;;;;;;4991249;28;20416;-67
2022/08/28 01:07:56;;;;;;;12.47;11.30;;;20.30;99.90;;;;;;4990806;28;20444;-69
2022/08/28 01:10:26;;;;;;;14.70;12.37;;;20.30;99.90;;;;;;4989732;28;20474;-68
2022/08/28 01:12:55;;;;;;;14.20;11.73;;;20.30;99.90;;;;;;4994073;28;20415;-68
2022/08/28 01:15:27;;;;;;;14.53;13.17;;;20.30;99.90;;;;;;4994452;28;20428;-70
2022/08/28 01:17:58;;;;;;;13.10;11.50;;;20.20;99.90;;;;;;4994572;28;20415;-69
2022/08/28 01:20:30;;;;;;;16.47;13.10;;;20.20;99.90;;;;;;4994438;28;20411;-69
2022/08/28 01:23:17;;;;;;;13.73;11.67;;;20.30;99.90;;;;;;4994428;28;20808;-69
2022/08/28 01:25:43;;;;;;;12.87;11.57;;;20.30;99.90;;;;;;4994172;28;20434;-68
2022/08/28 01:28:11;;;;;;;13.53;12.20;;;20.20;99.90;;;;;;4992728;28;20417;-69
2022/08/28 01:30:39;;;;;;;12.53;11.33;;;20.20;99.90;;;;;;4996656;28;20169;-68
2022/08/28 01:33:05;;;;;;;13.90;11.90;;;20.20;99.90;;;;;;4999689;28;20451;-69
2022/08/28 01:35:34;;;;;;;18.07;13.10;;;20.30;99.90;;;;;;5000519;28;20928;-67
2022/08/28 01:38:01;;;;;;;17.57;13.10;;;20.20;99.90;;;;;;4993464;28;20399;-69
2022/08/28 01:40:36;;;;;;;21.13;13.30;;;20.20;99.90;;;;;;4994167;28;20476;-67
2022/08/28 01:43:08;;;;;;;14.30;12.63;;;20.20;99.90;;;;;;4992620;28;20513;-66
2022/08/28 01:45:36;;;;;;;14.60;12.20;;;20.20;99.90;;;;;;4994050;28;20491;-66
2022/08/28 01:48:03;;;;;;;16.90;13.53;;;20.20;99.90;;;;;;4993886;28;20408;-66
2022/08/28 01:50:29;;;;;;;12.23;11.00;;;20.10;99.90;;;;;;4994004;28;20412;-66
2022/08/28 01:52:55;;;;;;;13.17;11.77;;;20.10;99.90;;;;;;4993771;28;20514;-67
2022/08/28 01:55:21;;;;;;;13.30;12.00;;;20.10;99.90;;;;;;5033116;23;20251;-65
2022/08/28 01:57:51;;;;;;;13.13;11.80;;;20.20;99.90;;;;;;5032772;28;20642;-66
2022/08/28 02:00:17;;;;;;;14.37;12.97;;;20.10;99.90;;;;;;5032919;28;20164;-65
2022/08/28 02:02:43;;;;;;;14.10;12.60;;;20.20;99.90;;;;;;5032788;28;20462;-65
2022/08/28 02:05:10;;;;;;;16.33;12.10;;;20.30;99.90;;;;;;5032998;28;20445;-65
2022/08/28 02:07:36;;;;;;;16.97;14.53;;;20.30;99.90;;;;;;5032725;28;20164;-65
2022/08/28 02:10:03;;;;;;;15.23;12.50;;;20.30;99.90;;;;;;5034875;28;20406;-66
2022/08/28 02:12:29;;;;;;;13.33;12.00;;;20.30;99.90;;;;;;5042620;28;20908;-66
2022/08/28 02:14:54;;;;;;;13.70;12.40;;;20.30;99.90;;;;;;5039127;28;20453;-65
2022/08/28 02:17:20;;;;;;;15.60;13.97;;;20.30;99.90;;;;;;5045401;28;20206;-66
2022/08/28 02:19:46;;;;;;;15.03;13.60;;;20.20;99.90;;;;;;5046122;28;20198;-66
2022/08/28 02:22:12;;;;;;;14.37;12.50;;;20.20;99.90;;;;;;5046973;28;20195;-66
2022/08/28 02:24:38;;;;;;;18.93;13.57;;;20.30;99.90;;;;;;5032051;28;20195;-65
2022/08/28 02:27:04;;;;;;;17.13;13.67;;;20.30;99.90;;;;;;5032255;28;20497;-66
2022/08/28 02:29:30;;;;;;;15.23;13.00;;;20.30;99.90;;;;;;5032130;28;20467;-65
2022/08/28 02:31:56;;;;;;;14.33;12.73;;;20.30;99.90;;;;;;5032282;28;20414;-66
2022/08/28 02:34:22;;;;;;;14.40;12.90;;;20.30;99.90;;;;;;5032319;28;20937;-66
2022/08/28 02:36:48;;;;;;;14.67;12.70;;;20.30;99.90;;;;;;5030828;28;20179;-66
2022/08/28 02:39:14;;;;;;;14.57;13.00;;;20.30;99.90;;;;;;5031731;28;20468;-66
2022/08/28 02:41:40;;;;;;;14.60;12.50;;;20.30;99.90;;;;;;5031991;28;20462;-66
2022/08/28 02:44:06;;;;;;;16.63;13.60;;;20.30;99.90;;;;;;5031987;28;20405;-66
2022/08/28 02:46:32;;;;;;;17.70;14.20;;;20.20;99.90;;;;;;5031976;28;20226;-66
2022/08/28 02:48:58;;;;;;;15.23;12.97;;;20.20;99.90;;;;;;5031840;28;20179;-65
2022/08/28 02:51:24;;;;;;;16.07;13.57;;;20.20;99.90;;;;;;5031866;28;20191;-66
2022/08/28 02:53:51;;;;;;;13.57;11.80;;;20.30;99.90;;;;;;5031966;28;20541;-65
2022/08/28 02:56:17;;;;;;;17.43;12.10;;;20.30;99.90;;;;;;5031670;28;20477;-65
2022/08/28 02:58:43;;;;;;;13.43;12.10;;;20.30;99.90;;;;;;5031514;28;20410;-65
2022/08/28 03:01:11;;;;;;;13.80;12.20;;;20.30;99.90;;;;;;5031696;28;20977;-66
2022/08/28 03:03:38;;;;;;;21.93;13.47;;;20.30;99.90;;;;;;5031712;28;20175;-66
2022/08/28 03:06:04;;;;;;;14.40;12.90;;;20.30;99.90;;;;;;5031440;28;20927;-66
2022/08/28 03:08:31;;;;;;;17.23;13.67;;;20.30;99.90;;;;;;5031238;28;20460;-66
2022/08/28 03:10:57;;;;;;;17.00;13.37;;;20.30;99.90;;;;;;5031653;28;20513;-66
2022/08/28 03:13:24;;;;;;;15.00;13.60;;;20.30;99.90;;;;;;5031680;28;20444;-66
2022/08/28 03:15:49;;;;;;;15.67;13.47;;;20.20;99.90;;;;;;5031519;28;20861;-65
2022/08/28 03:18:17;;;;;;;15.57;13.97;;;20.00;99.90;;;;;;5031099;28;20505;-65
2022/08/28 03:20:45;;;;;;;17.13;12.97;;;20.10;99.90;;;;;;5031529;28;20175;-66
2022/08/28 03:23:27;;;;;;;15.90;13.57;;;20.10;99.90;;;;;;5031289;28;20860;-65
2022/08/28 03:25:52;;;;;;;15.43;13.40;;;20.20;99.90;;;;;;5031317;28;20429;-66
2022/08/28 03:28:18;;;;;;;16.73;13.97;;;20.20;99.90;;;;;;5031000;28;20777;-66
2022/08/28 03:30:45;;;;;;;15.20;13.70;;;20.20;99.90;;;;;;5031471;28;20540;-66
2022/08/28 03:33:10;;;;;;;13.87;12.40;;;20.20;99.90;;;;;;5031306;28;20419;-66
2022/08/28 03:35:36;;;;;;;30.73;14.10;;;20.20;99.90;;;;;;5030147;28;20577;-66
2022/08/28 03:38:03;;;;;;;17.47;13.67;;;20.20;99.90;;;;;;5029719;28;20171;-66
2022/08/28 03:40:30;;;;;;;18.67;13.20;;;20.20;99.90;;;;;;5031142;28;20608;-67
2022/08/28 03:42:56;;;;;;;16.20;14.60;;;20.20;99.90;;;;;;5030914;28;20468;-66
2022/08/28 03:45:22;;;;;;;14.83;13.10;;;20.20;99.90;;;;;;5029781;28;20521;-65
2022/08/28 03:47:49;;;;;;;16.30;13.40;;;20.20;99.90;;;;;;5031072;28;20171;-66
2022/08/28 03:50:16;;;;;;;15.43;13.83;;;20.20;99.90;;;;;;5030870;28;20433;-66
2022/08/28 03:52:42;;;;;;;14.63;13.23;;;20.30;99.90;;;;;;5030970;28;20471;-66
2022/08/28 03:55:10;;;;;;;16.67;14.90;;;20.30;99.90;;;;;;5030593;28;20461;-66
2022/08/28 03:57:36;;;;;;;17.70;13.63;;;20.30;99.90;;;;;;5030629;28;20967;-66
2022/08/28 04:00:07;;;;;;;16.50;14.80;;;20.30;99.90;;;;;;5030589;28;20410;-66
2022/08/28 04:02:32;;;;;;;19.10;14.03;;;20.20;99.90;;;;;;5030673;28;20993;-66
2022/08/28 04:04:58;;;;;;;14.47;12.97;;;20.20;99.90;;;;;;5030703;28;20434;-65
2022/08/28 04:07:24;;;;;;;16.23;12.40;;;20.20;99.90;;;;;;5030384;28;20195;-66
2022/08/28 04:09:49;;;;;;;16.13;13.90;;;20.20;99.90;;;;;;5030490;28;20624;-65
2022/08/28 04:12:15;;;;;;;17.00;13.60;;;20.20;99.90;;;;;;5030598;28;20171;-66
2022/08/28 04:14:41;;;;;;;17.07;14.60;;;20.20;1.00;;;;;;5030521;28;20200;-66
2022/08/28 04:17:07;;;;;;;19.63;14.10;;;20.10;1.00;;;;;;5031151;28;20167;-66
2022/08/28 04:19:33;;;;;;;28.63;16.77;;;20.10;1.00;;;;;;5030498;28;20187;-66
2022/08/28 04:21:59;;;;;;;17.83;13.77;;;20.20;1.00;;;;;;5030742;28;20199;-66
2022/08/28 04:24:24;;;;;;;15.30;13.80;;;20.20;99.90;;;;;;5030706;28;20449;-66
2022/08/28 04:26:50;;;;;;;19.23;14.60;;;20.20;99.90;;;;;;5030459;28;20430;-66
2022/08/28 04:29:16;;;;;;;15.80;14.30;;;20.10;1.00;;;;;;5030144;28;20175;-65
2022/08/28 04:31:42;;;;;;;25.57;15.50;;;20.10;99.90;;;;;;5030334;28;20688;-66
2022/08/28 04:34:09;;;;;;;17.10;14.73;;;20.10;1.00;;;;;;5030478;28;20690;-65
2022/08/28 04:36:35;;;;;;;19.87;13.83;;;20.10;1.00;;;;;;5030113;28;20199;-66
2022/08/28 04:39:04;;;;;;;16.70;13.70;;;20.00;1.00;;;;;;5030050;28;20406;-66
2022/08/28 04:41:30;;;;;;;21.63;13.87;;;20.10;1.00;;;;;;5031077;28;20817;-66
2022/08/28 04:43:57;;;;;;;16.00;14.37;;;20.10;1.00;;;;;;5031970;28;20805;-66
2022/08/28 04:46:24;;;;;;;15.83;14.13;;;20.10;1.00;;;;;;5032788;28;20604;-65
2022/08/28 04:48:49;;;;;;;15.77;14.20;;;20.00;1.00;;;;;;5033729;28;20494;-65
2022/08/28 04:51:15;;;;;;;22.63;14.97;;;19.80;1.00;;;;;;5034144;28;20986;-66
2022/08/28 04:53:42;;;;;;;18.90;14.53;;;19.80;1.00;;;;;;5034032;28;20175;-66
2022/08/28 04:56:10;;;;;;;18.20;14.97;;;19.90;1.00;;;;;;5033829;28;20478;-65
2022/08/28 04:58:37;;;;;;;16.00;14.03;;;19.90;1.00;;;;;;5033795;28;20404;-65
2022/08/28 05:01:10;;;;;;;14.87;13.33;;;19.90;1.00;;;;;;5034035;28;20466;-66
2022/08/28 05:03:36;;;;;;;16.63;13.60;;;19.80;1.00;;;;;;5033897;28;20882;-65
2022/08/28 05:06:02;;;;;;;17.97;13.80;;;19.80;1.00;;;;;;5033720;28;20505;-65
2022/08/28 05:08:28;;;;;;;14.07;12.67;;;19.70;1.00;;;;;;5033576;28;20481;-65
2022/08/28 05:10:56;;;;;;;17.87;14.10;;;19.80;1.00;;;;;;5033842;28;20457;-65
2022/08/28 05:13:23;;;;;;;16.23;14.53;;;19.80;1.00;;;;;;5033898;28;20482;-65
2022/08/28 05:15:51;;;;;;;16.50;14.27;;;19.80;1.00;;;;;;5033582;28;20420;-65
2022/08/28 05:18:20;;;;;;;16.90;12.80;;;19.70;1.00;;;;;;5033510;28;20409;-65
2022/08/28 05:20:47;;;;;;;15.67;13.17;;;19.80;1.00;;;;;;5033403;28;20950;-65
2022/08/28 05:23:15;;;;;;;15.80;14.20;;;19.80;1.00;;;;;;5033855;28;20454;-65
2022/08/28 05:25:46;;;;;;;19.00;15.97;;;19.60;1.00;;;;;;5033644;28;20429;-65
2022/08/28 05:28:14;;;;;;;17.70;13.40;;;19.70;1.00;;;;;;5033182;28;20398;-65
2022/08/28 05:30:40;;;;;;;18.50;14.70;;;19.70;1.00;;;;;;5033616;28;20825;-65
2022/08/28 05:33:08;;;;;;;15.07;13.50;;;19.80;1.00;;;;;;5033920;28;20761;-65
2022/08/28 05:35:37;;;;;;;16.23;14.60;;;19.70;1.00;;;;;;5033727;28;20430;-64
2022/08/28 05:38:03;;;;;;;19.00;15.13;;;19.60;1.00;;;;;;5033566;28;20460;-65
2022/08/28 05:40:28;;;;;;;20.03;15.97;;;19.70;1.00;;;;;;5033498;28;20464;-64
2022/08/28 05:42:54;;;;;;;20.30;14.83;;;19.70;1.00;;;;;;5033376;28;20454;-65
2022/08/28 05:45:21;;;;;;;18.60;15.07;;;19.60;1.00;;;;;;5033277;28;20704;-65
2022/08/28 05:47:47;;;;;;;16.00;14.10;;;19.60;1.00;;;;;;5033628;28;20418;-65
2022/08/28 05:50:13;;;;;;;15.70;14.10;;;19.60;1.00;;;;;;5033118;28;20782;-65
2022/08/28 05:52:42;;;;;;;16.57;13.83;;;19.70;1.00;;;;;;5033180;28;20235;-66
2022/08/28 05:55:10;;;;;;;15.30;13.80;;;19.60;1.00;;;;;;5033220;28;20207;-65
2022/08/28 05:57:40;;;;;;;17.40;13.40;;;19.60;1.00;;;;;;5032005;28;20418;-65
2022/08/28 06:00:06;;;;;;;15.23;13.40;;;19.70;1.00;;;;;;5033031;28;20974;-65
2022/08/28 06:02:33;;;;;;;19.30;14.90;;;19.60;1.00;;;;;;5033180;28;20540;-66
2022/08/28 06:04:59;;;;;;;24.03;15.87;;;19.70;1.00;;;;;;5032915;28;20430;-65
2022/08/28 06:07:25;;;;;;;17.37;13.90;;;19.70;1.00;;;;;;5032929;28;20395;-65
2022/08/28 06:09:51;;;;;;;15.93;14.33;;;19.80;1.00;;;;;;5032889;28;20198;-65
2022/08/28 06:12:16;;;;;;;22.17;15.47;;;19.80;1.00;;;;;;5031547;28;20176;-65
2022/08/28 06:14:42;;;;;;;17.10;14.67;;;20.00;1.00;;;;;;5032832;28;20187;-65
2022/08/28 06:17:08;;;;;;;18.53;15.53;;;20.00;1.00;;;;;;5032942;28;20608;-66
2022/08/28 06:19:35;;;;;;;16.20;14.50;;;20.20;1.00;;;;;;5032628;28;20188;-66
2022/08/28 06:22:03;;;;;;;16.13;13.60;;;20.40;99.90;;;;;;5032669;28;20659;-65
2022/08/28 06:24:29;;;;;;;28.50;14.90;;;20.50;99.90;;;;;;5032888;28;20415;-65
2022/08/28 06:26:56;;;;;;;20.50;14.87;;;20.50;99.90;;;;;;5032748;28;20683;-65
2022/08/28 06:29:22;;;;;;;16.70;13.83;;;20.80;99.90;;;;;;5032654;28;20406;-65
2022/08/28 06:31:53;;;;;;;16.30;14.60;;;21.30;1.00;;;;;;5032698;28;20410;-66
2022/08/28 06:34:19;;;;;;;19.80;13.87;;;21.80;1.00;;;;;;5032941;28;20167;-67
2022/08/28 06:36:45;;;;;;;14.07;12.30;;;22.10;1.00;;;;;;5033759;28;20413;-66
2022/08/28 06:39:12;;;;;;;14.60;13.10;;;22.30;1.00;;;;;;5032480;28;20229;-66
2022/08/28 06:41:41;;;;;;;16.50;13.60;;;22.20;1.00;;;;;;5032300;28;20693;-65
2022/08/28 06:44:18;;;;;;;19.30;13.57;;;22.00;38.10;;;;;;5032357;28;20511;-66
2022/08/28 06:46:45;;;;;;;13.87;12.47;;;22.00;1.00;;;;;;5032376;28;20433;-66
2022/08/28 06:49:11;;;;;;;21.33;13.30;;;21.50;1.00;;;;;;5032073;28;20453;-66
2022/08/28 06:51:38;;;;;;;16.40;12.90;;;21.40;1.00;;;;;;5032355;28;20450;-67
2022/08/28 06:54:04;;;;;;;14.47;12.97;;;21.00;99.90;;;;;;5032832;28;20417;-66
2022/08/28 06:56:30;;;;;;;19.90;14.17;;;21.00;1.00;;;;;;5033035;28;20454;-67
2022/08/28 06:58:57;;;;;;;16.03;13.33;;;21.00;1.00;;;;;;5035002;28;20434;-67
2022/08/28 07:01:31;;;;;;;28.43;15.10;;;21.00;1.00;;;;;;5035710;28;20172;-66
2022/08/28 07:04:00;;;;;;;15.80;13.20;;;21.00;1.00;;;;;;5036386;28;20414;-66
2022/08/28 07:06:29;;;;;;;14.67;12.90;;;20.80;1.00;;;;;;5036456;28;20799;-67
2022/08/28 07:08:54;;;;;;;17.93;14.40;;;20.90;11.30;;;;;;5038483;28;20809;-65
2022/08/28 07:11:27;;;;;;;18.03;14.80;;;20.90;1.00;;;;;;5037389;28;20505;-66
2022/08/28 07:13:54;;;;;;;33.17;16.37;;;20.70;1.00;;;;;;5038834;28;20172;-66
2022/08/28 07:16:23;;;;;;;16.50;14.47;;;20.80;71.20;;;;;;5030259;28;21024;-66
2022/08/28 07:18:50;;;;;;;18.57;13.93;;;20.90;1.00;;;;;;5031302;28;20413;-67
2022/08/28 07:21:17;;;;;;;16.30;14.30;;;20.60;99.90;;;;;;5031553;28;20414;-66
2022/08/28 07:23:43;;;;;;;17.40;15.23;;;20.70;99.90;;;;;;5031488;28;20410;-67
2022/08/28 07:26:16;;;;;;;20.27;13.80;;;20.50;99.90;;;;;;5031205;28;20423;-66
2022/08/28 07:28:42;;;;;;;17.57;14.27;;;20.40;99.90;;;;;;5031268;28;20825;-66
2022/08/28 07:31:12;;;;;;;15.00;12.80;;;20.30;99.90;;;;;;5031265;28;20437;-66
2022/08/28 07:33:39;;;;;;;14.10;12.60;;;20.20;99.90;;;;;;5029744;28;20410;-67
2022/08/28 07:36:07;;;;;;;15.10;13.50;;;20.40;99.90;;;;;;5031106;28;20483;-66
2022/08/28 07:38:32;;;;;;;19.23;13.00;;;20.40;99.90;;;;;;5030639;28;20497;-66
2022/08/28 07:40:58;;;;;;;15.47;13.83;;;20.60;99.90;;;;;;5030807;28;21000;-66
2022/08/28 07:46:10;;;;;;;33.43;16.60;;;20.30;99.90;;;;;;5031221;28;20193;-66
2022/08/28 07:48:37;;;;;;;16.27;13.80;;;20.50;99.90;;;;;;5030665;28;20464;-66
2022/08/28 07:51:05;;;;;;;14.57;13.07;;;20.50;99.90;;;;;;5031237;28;20407;-66
2022/08/28 07:53:31;;;;;;;16.80;13.60;;;20.40;99.90;;;;;;5030860;28;20494;-67
2022/08/28 07:55:57;;;;;;;16.20;14.50;;;20.40;99.90;;;;;;5031268;28;20457;-66
2022/08/28 07:58:25;;;;;;;21.13;14.43;;;20.50;99.90;;;;;;5030793;28;20430;-67
2022/08/28 08:00:52;;;;;;;16.17;13.77;;;20.50;99.90;;;;;;5031081;28;20179;-67
2022/08/28 08:03:18;;;;;;;17.43;15.00;;;20.30;99.90;;;;;;5030713;28;20565;-66
2022/08/28 08:06:02;;;;;;;19.90;15.17;;;20.30;99.90;;;;;;5030746;28;20466;-67
2022/08/28 08:08:29;;;;;;;15.80;13.77;;;20.30;99.90;;;;;;5030722;28;20406;-67
2022/08/28 08:11:01;;;;;;;18.47;14.10;;;20.50;99.90;;;;;;5030864;28;20747;-66
2022/08/28 08:13:28;;;;;;;17.27;15.10;;;20.50;99.90;;;;;;5030888;28;20464;-66
2022/08/28 08:16:05;;;;;;;17.17;15.37;;;20.30;99.90;;;;;;5030707;28;20442;-67
2022/08/28 08:18:32;;;;;;;17.73;15.83;;;20.20;99.90;;;;;;5030645;28;20898;-66
2022/08/28 08:20:58;;;;;;;20.73;16.10;;;20.30;99.90;;;;;;5031204;28;20464;-67
2022/08/28 08:23:24;;;;;;;19.33;16.30;;;20.30;99.90;;;;;;5034731;28;20457;-67
2022/08/28 08:25:55;;;;;;;16.20;14.60;;;20.60;99.90;;;;;;5034620;28;20480;-66
2022/08/28 08:28:21;;;;;;;19.53;16.77;;;20.70;99.90;;;;;;5034392;28;20931;-67
2022/08/28 08:30:47;;;;;;;18.63;16.20;;;20.60;99.90;;;;;;5034852;28;20477;-67
2022/08/28 08:33:12;;;;;;;21.23;16.70;;;20.60;99.90;;;;;;5034743;28;20184;-67
2022/08/28 08:35:38;;;;;;;24.63;16.70;;;20.70;99.90;;;;;;5034551;28;20202;-66
2022/08/28 08:38:05;;;;;;;26.03;16.60;;;20.90;99.90;;;;;;5034485;28;20222;-66
2022/08/28 08:40:32;;;;;;;18.97;16.97;;;21.10;99.90;;;;;;5034460;28;20414;-67
2022/08/28 08:43:00;;;;;;;21.00;16.03;;;21.10;99.90;;;;;;5034428;28;20458;-66
2022/08/28 08:45:28;;;;;;;17.90;14.53;;;21.00;99.90;;;;;;5034533;28;20437;-66
2022/08/28 08:47:55;;;;;;;19.10;17.20;;;21.00;99.90;;;;;;5034383;28;20409;-67
2022/08/28 08:50:28;;;;;;;16.97;15.17;;;21.10;99.90;;;;;;5034191;28;20421;-66
2022/08/28 08:53:24;;;;;;;18.10;15.10;;;21.40;99.90;;;;;;5034239;28;20410;-66
2022/08/28 08:55:52;;;;;;;17.47;15.60;;;22.00;42.10;;;;;;5033843;28;20442;-66
2022/08/28 08:58:30;;;;;;;18.57;16.80;;;22.00;1.00;;;;;;5034129;28;20409;-66
2022/08/28 09:01:29;;;;;;;20.23;15.07;;;22.30;30.60;;;;;;5034226;28;20950;-67
2022/08/28 09:04:10;;;;;;;31.50;16.90;;;22.50;1.00;;;;;;5034157;28;20434;-67
2022/08/28 09:06:48;;;;;;;16.40;14.57;;;22.60;99.90;;;;;;5034514;28;20525;-67
2022/08/28 09:09:26;;;;;;;20.23;15.43;;;22.30;1.00;;;;;;5033908;28;20430;-67
2022/08/28 09:12:02;;;;;;;22.83;16.63;;;22.40;99.90;;;;;;5033985;28;20494;-67
2022/08/28 09:15:03;;;;;;;21.47;14.43;;;22.50;1.00;;;;;;5033566;28;20410;-66
2022/08/28 09:17:36;;;;;;;25.13;16.00;;;22.70;99.90;;;;;;5033708;28;20401;-67
2022/08/28 09:20:09;;;;;;;16.30;14.13;;;22.60;1.00;;;;;;5033930;28;20485;-67
2022/08/28 09:22:36;;;;;;;17.00;15.20;;;22.60;99.90;;;;;;5033673;28;20442;-67
2022/08/28 09:25:03;;;;;;;18.67;15.10;;;22.50;99.90;;;;;;5033931;28;20468;-67
2022/08/28 09:27:31;;;;;;;17.90;16.00;;;22.50;99.90;;;;;;5033922;28;20513;-67
2022/08/28 09:30:09;;;;;;;16.10;14.57;;;22.40;1.00;;;;;;5033499;28;20415;-67
2022/08/28 09:32:43;;;;;;;24.57;14.37;;;22.30;99.90;;;;;;5033713;28;20444;-67
2022/08/28 09:35:27;;;;;;;16.30;14.70;;;22.20;1.00;;;;;;5033430;28;20428;-67
2022/08/28 09:37:54;;;;;;;16.97;15.17;;;22.20;1.00;;;;;;5033344;28;20475;-67
2022/08/28 09:43:25;;;;;;;16.60;15.00;;;22.10;99.90;;;;;;5033800;28;20414;-67
2022/08/28 09:43:25;;;;;;;17.33;15.33;;;21.90;1.00;;;;;;5033420;28;20461;-67
2022/08/28 09:46:00;;;;;;;21.07;15.50;;;21.70;99.90;;;;;;5033353;28;20943;-67
2022/08/28 09:48:42;;;;;;;20.20;15.37;;;21.60;1.00;;;;;;5033271;28;20402;-67
2022/08/28 09:51:13;;;;;;;34.33;16.70;;;21.70;1.00;;;;;;5034291;28;20386;-67
2022/08/28 09:53:58;;;;;;;22.70;14.90;;;21.70;1.00;;;;;;5033700;28;20414;-67
2022/08/28 09:56:32;;;;;;;26.30;15.17;;;21.70;1.00;;;;;;5033119;28;20454;-66
2022/08/28 09:59:16;;;;;;;20.57;15.90;;;21.70;99.90;;;;;;5033153;28;20762;-67
2022/08/28 10:02:00;;;;;;;18.97;16.93;;;21.70;1.00;;;;;;5033075;28;20454;-67
2022/08/28 10:05:02;;;;;;;17.20;15.40;;;21.70;1.00;;;;;;5033101;28;20411;-67
2022/08/28 10:07:54;;;;;;;20.73;15.37;;;21.60;1.00;;;;;;5032512;28;20406;-67
2022/08/28 10:10:46;;;;;;;25.13;17.27;;;21.60;1.00;;;;;;5032792;28;20899;-67
2022/08/28 10:13:41;;;;;;;17.37;15.57;;;21.50;1.00;;;;;;5031475;28;20454;-67
2022/08/28 10:16:36;;;;;;;16.03;14.23;;;21.40;16.80;;;;;;5032861;28;20449;-67
2022/08/28 10:19:32;;;;;;;16.87;13.50;;;21.30;16.90;;;;;;5032943;28;20445;-67
2022/08/28 10:22:13;;;;;;;16.00;13.07;;;21.10;1.00;;;;;;5033048;28;20525;-66
2022/08/28 10:24:55;;;;;;;23.40;13.47;;;21.10;1.00;;;;;;5032499;28;20471;-67
2022/08/28 10:27:58;;;;;;;15.33;13.40;;;21.10;99.90;;;;;;5032441;28;20399;-66
2022/08/28 10:30:24;;;;;;;15.87;14.27;;;21.10;99.90;;;;;;5032637;28;20432;-66
2022/08/28 10:32:54;;;;;;;14.63;13.10;;;20.70;26.40;;;;;;5032406;28;20511;-67
2022/08/28 10:35:44;;;;;;;14.83;12.97;;;20.80;1.00;;;;;;5032228;28;20476;-67
2022/08/28 10:38:17;;;;;;;14.33;12.77;;;21.00;1.00;;;;;;5031977;28;20906;-66
2022/08/28 10:41:00;;;;;;;14.93;13.47;;;21.00;85.40;;;;;;5031976;28;20509;-66
2022/08/28 10:43:35;;;;;;;15.47;13.97;;;21.10;99.90;;;;;;5031820;28;20486;-66
2022/08/28 10:46:10;;;;;;;14.00;12.70;;;21.00;36.40;;;;;;5031859;28;20428;-66
2022/08/28 10:48:51;;;;;;;15.37;13.80;;;21.10;99.90;;;;;;5030357;28;20394;-67
2022/08/28 10:51:32;;;;;;;15.73;13.90;;;21.20;1.00;;;;;;5029855;28;20888;-66
2022/08/28 10:54:05;;;;;;;15.33;13.67;;;21.30;1.00;;;;;;5030132;28;20918;-65
2022/08/28 10:57:08;;;;;;;14.77;12.90;;;21.50;1.00;;;;;;5029739;28;20493;-66
2022/08/28 10:59:35;;;;;;;16.13;14.53;;;21.60;1.00;;;;;;5028763;28;20488;-68
2022/08/28 11:02:04;;;;;;;15.23;13.73;;;21.30;99.90;;;;;;5029006;28;20504;-67
2022/08/28 11:04:30;;;;;;;14.93;13.47;;;21.30;99.90;;;;;;5029698;28;20415;-66
2022/08/28 11:07:03;;;;;;;15.17;13.77;;;21.40;99.90;;;;;;5029209;28;20410;-66
2022/08/28 11:09:39;;;;;;;15.10;13.63;;;21.40;1.00;;;;;;5028974;28;20852;-67
2022/08/28 11:12:36;;;;;;;15.47;13.97;;;21.50;1.00;;;;;;5028961;28;20417;-66
2022/08/28 11:15:27;;;;;;;28.77;15.57;;;21.60;99.90;;;;;;5029435;28;20441;-67
2022/08/28 11:17:56;;;;;;;14.13;12.73;;;22.00;1.00;;;;;;5029230;28;20442;-67
2022/08/28 11:20:26;;;;;;;21.80;12.23;;;22.20;99.90;;;;;;5029229;28;20485;-66
2022/08/28 11:23:00;;;;;;;13.37;11.23;;;22.30;21.30;;;;;;5029285;28;20461;-66
2022/08/28 11:25:26;;;;;;;12.57;11.37;;;22.50;1.00;;;;;;5029767;28;20426;-67
2022/08/28 11:28:22;;;;;;;14.60;10.77;;;22.70;1.00;;;;;;5029103;28;20409;-66
2022/08/28 11:30:57;;;;;;;15.90;12.23;;;22.90;99.90;;;;;;5029497;28;20187;-66
2022/08/28 11:33:42;;;;;;;13.07;11.13;;;22.80;1.00;;;;;;5029716;28;20834;-66
2022/08/28 11:36:18;;;;;;;11.83;10.37;;;22.90;1.00;;;;;;5031760;28;20452;-66
2022/08/28 11:38:44;;;;;;;12.83;11.63;;;22.90;1.00;;;;;;5037947;28;20403;-67
2022/08/28 11:41:12;;;;;;;12.63;11.37;;;22.80;1.00;;;;;;5035646;28;20496;-67
2022/08/28 11:43:40;;;;;;;11.10;10.00;;;22.80;99.90;;;;;;5033444;28;20195;-67
2022/08/28 11:46:23;;;;;;;12.70;11.40;;;22.80;1.00;;;;;;5029804;28;20459;-67
2022/08/28 11:48:52;;;;;;;12.43;11.23;;;22.70;65.40;;;;;;5029318;28;20414;-67
2022/08/28 11:51:30;;;;;;;14.23;10.50;;;22.60;1.00;;;;;;5029090;28;20402;-67
2022/08/28 11:54:09;;;;;;;12.07;10.87;;;22.70;1.00;;;;;;5029095;28;20448;-67
2022/08/28 11:56:37;;;;;;;14.40;10.47;;;22.70;1.00;;;;;;5027673;28;20949;-67
2022/08/28 11:59:27;;;;;;;12.40;9.90;;;23.00;1.00;;;;;;5028670;28;20460;-67
2022/08/28 12:01:53;;;;;;;11.47;9.30;;;23.00;99.90;;;;;;5028239;28;20859;-67
2022/08/28 12:04:21;;;;;;;11.47;10.27;;;23.10;99.90;;;;;;5028295;28;20402;-67
2022/08/28 12:07:14;;;;;;;9.70;8.83;;;23.10;99.90;;;;;;5028761;28;20521;-67
2022/08/28 12:09:46;;;;;;;10.87;9.70;;;23.10;99.90;;;;;;5028375;28;20402;-67
2022/08/28 12:12:32;;;;;;;14.20;9.10;;;23.10;99.90;;;;;;5028388;28;20822;-67
2022/08/28 12:15:01;;;;;;;9.43;8.20;;;23.00;99.90;;;;;;5024298;28;20460;-67
2022/08/28 12:17:40;;;;;;;9.47;8.60;;;23.10;73.10;;;;;;5028545;28;20403;-67
2022/08/28 12:20:20;;;;;;;12.47;8.67;;;23.00;1.00;;;;;;5028597;28;20411;-67
2022/08/28 12:22:51;;;;;;;10.10;8.90;;;22.90;1.00;;;;;;5029344;28;20457;-67
2022/08/28 12:25:41;;;;;;;8.77;7.97;;;23.00;1.00;;;;;;5030698;28;20414;-67
2022/08/28 12:28:19;;;;;;;9.80;8.80;;;22.90;1.00;;;;;;5030488;28;20462;-67
2022/08/28 12:31:04;;;;;;;10.00;8.77;;;22.90;98.00;;;;;;5030709;28;20398;-66
2022/08/28 12:33:37;;;;;;;8.80;8.10;;;22.90;77.80;;;;;;5030716;28;20410;-67
2022/08/28 12:36:04;;;;;;;10.27;8.50;;;23.00;1.00;;;;;;5030935;28;20419;-68
2022/08/28 12:38:32;;;;;;;8.07;7.47;;;23.30;1.00;;;;;;5030402;28;20493;-68
2022/08/28 12:40:58;;;;;;;9.77;8.77;;;23.30;1.00;;;;;;5031551;28;20499;-67
2022/08/28 12:43:29;;;;;;;8.53;7.60;;;23.50;1.00;;;;;;5030291;28;20554;-67
2022/08/28 12:46:01;;;;;;;9.33;8.23;;;23.70;1.00;;;;;;5030402;28;20196;-67
2022/08/28 12:48:33;;;;;;;8.87;8.00;;;23.70;1.00;;;;;;5030343;28;20919;-67
2022/08/28 12:51:07;;;;;;;16.23;9.53;;;23.70;1.00;;;;;;5030905;28;20417;-67
2022/08/28 12:53:42;;;;;;;9.90;8.77;;;23.60;1.00;;;;;;5030529;28;20426;-67